sensor_id;sensor_type;location;lat;lon;timestamp;P1;durP1;ratioP1;P2;durP2;ratioP2
75739;SDS011;64357;51.344;6.550;2024-01-15T00:02:17;22.60;;;8.60;;
75739;SDS011;64357;51.344;6.550;2024-01-15T00:04:43;16.00;;;7.45;;
75739;SDS011;64357;51.344;6.550;2024-01-15T00:07:08;14.63;;;5.00;;
75739;SDS011;64357;51.344;6.550;2024-01-15T00:09:34;16.50;;;6.72;;
75739;SDS011;64357;51.344;6.550;2024-01-15T00:12:00;11.60;;;5.25;;
75739;SDS011;64357;51.344;6.550;2024-01-15T00:14:26;21.55;;;8.55;;
75739;SDS011;64357;51.344;6.550;2024-01-15T00:16:52;14.88;;;4.88;;
75739;SDS011;64357;51.344;6.550;2024-01-15T00:19:20;13.90;;;5.78;;
75739;SDS011;64357;51.344;6.550;2024-01-15T00:21:49;25.60;;;12.05;;
75739;SDS011;64357;51.344;6.550;2024-01-15T00:24:14;18.00;;;7.15;;
75739;SDS011;64357;51.344;6.550;2024-01-15T00:26:39;11.97;;;3.97;;
75739;SDS011;64357;51.344;6.550;2024-01-15T00:29:06;18.95;;;6.80;;
75739;SDS011;64357;51.344;6.550;2024-01-15T00:31:32;14.60;;;6.40;;
75739;SDS011;64357;51.344;6.550;2024-01-15T00:34:00;17.98;;;7.70;;
75739;SDS011;64357;51.344;6.550;2024-01-15T00:36:28;15.95;;;6.25;;
75739;SDS011;64357;51.344;6.550;2024-01-15T00:38:53;22.98;;;7.20;;
75739;SDS011;64357;51.344;6.550;2024-01-15T00:41:19;13.60;;;4.80;;
75739;SDS011;64357;51.344;6.550;2024-01-15T00:43:45;6.85;;;3.83;;
75739;SDS011;64357;51.344;6.550;2024-01-15T00:46:11;14.88;;;4.03;;
75739;SDS011;64357;51.344;6.550;2024-01-15T00:48:36;18.40;;;5.68;;
75739;SDS011;64357;51.344;6.550;2024-01-15T00:51:03;20.13;;;10.13;;
75739;SDS011;64357;51.344;6.550;2024-01-15T00:53:31;18.90;;;7.43;;
75739;SDS011;64357;51.344;6.550;2024-01-15T00:55:59;21.63;;;7.97;;
75739;SDS011;64357;51.344;6.550;2024-01-15T00:58:25;22.80;;;9.80;;
75739;SDS011;64357;51.344;6.550;2024-01-15T01:00:51;4.40;;;2.20;;
75739;SDS011;64357;51.344;6.550;2024-01-15T01:03:19;22.98;;;9.77;;
75739;SDS011;64357;51.344;6.550;2024-01-15T01:05:45;18.38;;;6.65;;
75739;SDS011;64357;51.344;6.550;2024-01-15T01:08:10;23.40;;;9.57;;
75739;SDS011;64357;51.344;6.550;2024-01-15T01:10:37;21.42;;;9.32;;
75739;SDS011;64357;51.344;6.550;2024-01-15T01:13:03;19.73;;;7.37;;
75739;SDS011;64357;51.344;6.550;2024-01-15T01:15:28;15.57;;;5.32;;
75739;SDS011;64357;51.344;6.550;2024-01-15T01:17:54;25.47;;;8.13;;
75739;SDS011;64357;51.344;6.550;2024-01-15T01:20:21;16.70;;;6.32;;
75739;SDS011;64357;51.344;6.550;2024-01-15T01:22:49;25.33;;;9.45;;
75739;SDS011;64357;51.344;6.550;2024-01-15T01:25:14;14.33;;;6.50;;
75739;SDS011;64357;51.344;6.550;2024-01-15T01:27:43;20.08;;;8.13;;
75739;SDS011;64357;51.344;6.550;2024-01-15T01:30:08;17.20;;;6.43;;
75739;SDS011;64357;51.344;6.550;2024-01-15T01:32:34;15.55;;;5.13;;
75739;SDS011;64357;51.344;6.550;2024-01-15T01:35:02;19.85;;;6.85;;
75739;SDS011;64357;51.344;6.550;2024-01-15T01:37:27;8.82;;;4.43;;
75739;SDS011;64357;51.344;6.550;2024-01-15T01:39:52;15.20;;;6.03;;
75739;SDS011;64357;51.344;6.550;2024-01-15T01:42:20;25.23;;;10.13;;
75739;SDS011;64357;51.344;6.550;2024-01-15T01:44:48;12.90;;;5.03;;
75739;SDS011;64357;51.344;6.550;2024-01-15T01:47:15;16.17;;;7.68;;
75739;SDS011;64357;51.344;6.550;2024-01-15T01:49:41;20.30;;;8.10;;
75739;SDS011;64357;51.344;6.550;2024-01-15T01:52:07;14.63;;;6.30;;
75739;SDS011;64357;51.344;6.550;2024-01-15T01:54:34;8.43;;;3.42;;
75739;SDS011;64357;51.344;6.550;2024-01-15T01:57:02;17.77;;;6.93;;
75739;SDS011;64357;51.344;6.550;2024-01-15T01:59:28;11.63;;;5.10;;
75739;SDS011;64357;51.344;6.550;2024-01-15T02:01:55;8.75;;;4.43;;
75739;SDS011;64357;51.344;6.550;2024-01-15T02:04:22;18.27;;;8.18;;
75739;SDS011;64357;51.344;6.550;2024-01-15T02:06:49;18.73;;;5.80;;
75739;SDS011;64357;51.344;6.550;2024-01-15T02:09:15;7.63;;;4.30;;
75739;SDS011;64357;51.344;6.550;2024-01-15T02:11:41;16.33;;;5.28;;
75739;SDS011;64357;51.344;6.550;2024-01-15T02:14:09;13.70;;;4.13;;
75739;SDS011;64357;51.344;6.550;2024-01-15T02:16:41;23.45;;;8.60;;
75739;SDS011;64357;51.344;6.550;2024-01-15T02:19:14;7.95;;;3.72;;
75739;SDS011;64357;51.344;6.550;2024-01-15T02:21:41;14.07;;;5.40;;
75739;SDS011;64357;51.344;6.550;2024-01-15T02:24:06;10.53;;;4.47;;
75739;SDS011;64357;51.344;6.550;2024-01-15T02:26:31;13.23;;;4.00;;
75739;SDS011;64357;51.344;6.550;2024-01-15T02:29:00;13.32;;;4.85;;
75739;SDS011;64357;51.344;6.550;2024-01-15T02:31:26;9.30;;;3.22;;
75739;SDS011;64357;51.344;6.550;2024-01-15T02:33:52;12.13;;;5.25;;
75739;SDS011;64357;51.344;6.550;2024-01-15T02:36:17;11.57;;;3.67;;
75739;SDS011;64357;51.344;6.550;2024-01-15T02:38:46;11.90;;;4.78;;
75739;SDS011;64357;51.344;6.550;2024-01-15T02:41:11;9.13;;;4.17;;
75739;SDS011;64357;51.344;6.550;2024-01-15T02:43:39;7.57;;;3.40;;
75739;SDS011;64357;51.344;6.550;2024-01-15T02:46:04;12.63;;;4.75;;
75739;SDS011;64357;51.344;6.550;2024-01-15T02:48:32;9.32;;;4.13;;
75739;SDS011;64357;51.344;6.550;2024-01-15T02:50:59;13.77;;;4.40;;
75739;SDS011;64357;51.344;6.550;2024-01-15T02:53:25;4.95;;;2.83;;
75739;SDS011;64357;51.344;6.550;2024-01-15T02:55:50;6.37;;;2.87;;
75739;SDS011;64357;51.344;6.550;2024-01-15T02:58:15;9.00;;;3.47;;
75739;SDS011;64357;51.344;6.550;2024-01-15T03:00:43;12.30;;;5.13;;
75739;SDS011;64357;51.344;6.550;2024-01-15T03:03:11;9.55;;;3.92;;
75739;SDS011;64357;51.344;6.550;2024-01-15T03:05:37;10.15;;;3.42;;
75739;SDS011;64357;51.344;6.550;2024-01-15T03:08:02;14.90;;;6.25;;
75739;SDS011;64357;51.344;6.550;2024-01-15T03:10:30;13.70;;;5.25;;
75739;SDS011;64357;51.344;6.550;2024-01-15T03:12:55;6.93;;;2.53;;
75739;SDS011;64357;51.344;6.550;2024-01-15T03:15:22;10.05;;;3.72;;
75739;SDS011;64357;51.344;6.550;2024-01-15T03:17:47;10.03;;;3.73;;
75739;SDS011;64357;51.344;6.550;2024-01-15T03:20:12;12.80;;;5.40;;
75739;SDS011;64357;51.344;6.550;2024-01-15T03:22:40;9.27;;;3.65;;
75739;SDS011;64357;51.344;6.550;2024-01-15T03:25:05;11.83;;;5.23;;
75739;SDS011;64357;51.344;6.550;2024-01-15T03:27:36;13.63;;;5.78;;
75739;SDS011;64357;51.344;6.550;2024-01-15T03:30:01;7.80;;;2.63;;
75739;SDS011;64357;51.344;6.550;2024-01-15T03:32:29;9.95;;;4.13;;
75739;SDS011;64357;51.344;6.550;2024-01-15T03:34:54;16.83;;;3.97;;
75739;SDS011;64357;51.344;6.550;2024-01-15T03:37:19;8.00;;;3.63;;
75739;SDS011;64357;51.344;6.550;2024-01-15T03:39:47;11.23;;;3.72;;
75739;SDS011;64357;51.344;6.550;2024-01-15T03:42:12;11.90;;;4.30;;
75739;SDS011;64357;51.344;6.550;2024-01-15T03:44:39;10.13;;;4.57;;
75739;SDS011;64357;51.344;6.550;2024-01-15T03:47:04;8.27;;;3.70;;
75739;SDS011;64357;51.344;6.550;2024-01-15T03:49:30;10.93;;;4.83;;
75739;SDS011;64357;51.344;6.550;2024-01-15T03:51:55;10.63;;;4.40;;
75739;SDS011;64357;51.344;6.550;2024-01-15T03:54:20;11.80;;;4.93;;
75739;SDS011;64357;51.344;6.550;2024-01-15T03:56:46;13.50;;;5.87;;
75739;SDS011;64357;51.344;6.550;2024-01-15T03:59:11;11.38;;;4.45;;
75739;SDS011;64357;51.344;6.550;2024-01-15T04:01:36;12.77;;;5.03;;
75739;SDS011;64357;51.344;6.550;2024-01-15T04:04:02;11.40;;;4.70;;
75739;SDS011;64357;51.344;6.550;2024-01-15T04:06:27;9.50;;;2.73;;
75739;SDS011;64357;51.344;6.550;2024-01-15T04:08:52;12.20;;;4.67;;
75739;SDS011;64357;51.344;6.550;2024-01-15T04:11:20;12.32;;;4.45;;
75739;SDS011;64357;51.344;6.550;2024-01-15T04:13:47;9.10;;;3.90;;
75739;SDS011;64357;51.344;6.550;2024-01-15T04:16:12;16.50;;;5.83;;
75739;SDS011;64357;51.344;6.550;2024-01-15T04:18:38;6.25;;;3.08;;
75739;SDS011;64357;51.344;6.550;2024-01-15T04:21:05;11.82;;;5.00;;
75739;SDS011;64357;51.344;6.550;2024-01-15T04:23:34;6.22;;;3.00;;
75739;SDS011;64357;51.344;6.550;2024-01-15T04:26:01;12.35;;;3.72;;
75739;SDS011;64357;51.344;6.550;2024-01-15T04:28:29;11.73;;;5.00;;
75739;SDS011;64357;51.344;6.550;2024-01-15T04:30:54;12.98;;;5.15;;
75739;SDS011;64357;51.344;6.550;2024-01-15T04:33:22;9.73;;;4.20;;
75739;SDS011;64357;51.344;6.550;2024-01-15T04:35:48;10.38;;;3.75;;
75739;SDS011;64357;51.344;6.550;2024-01-15T04:38:15;12.05;;;4.88;;
75739;SDS011;64357;51.344;6.550;2024-01-15T04:40:41;6.90;;;2.90;;
75739;SDS011;64357;51.344;6.550;2024-01-15T04:43:09;4.47;;;1.70;;
75739;SDS011;64357;51.344;6.550;2024-01-15T04:45:35;12.70;;;4.68;;
75739;SDS011;64357;51.344;6.550;2024-01-15T04:48:00;5.70;;;2.40;;
75739;SDS011;64357;51.344;6.550;2024-01-15T04:50:28;9.68;;;4.90;;
75739;SDS011;64357;51.344;6.550;2024-01-15T04:52:56;10.38;;;3.33;;
75739;SDS011;64357;51.344;6.550;2024-01-15T04:55:21;11.90;;;4.57;;
75739;SDS011;64357;51.344;6.550;2024-01-15T04:57:49;10.50;;;4.70;;
75739;SDS011;64357;51.344;6.550;2024-01-15T05:00:15;8.63;;;3.47;;
75739;SDS011;64357;51.344;6.550;2024-01-15T05:02:42;9.60;;;4.13;;
75739;SDS011;64357;51.344;6.550;2024-01-15T05:05:08;10.30;;;3.93;;
75739;SDS011;64357;51.344;6.550;2024-01-15T05:07:33;7.32;;;3.55;;
75739;SDS011;64357;51.344;6.550;2024-01-15T05:09:58;11.23;;;4.87;;
75739;SDS011;64357;51.344;6.550;2024-01-15T05:12:26;9.15;;;2.97;;
75739;SDS011;64357;51.344;6.550;2024-01-15T05:14:51;8.63;;;3.80;;
75739;SDS011;64357;51.344;6.550;2024-01-15T05:17:19;6.20;;;2.65;;
75739;SDS011;64357;51.344;6.550;2024-01-15T05:19:44;7.57;;;4.07;;
75739;SDS011;64357;51.344;6.550;2024-01-15T05:22:09;9.47;;;3.70;;
75739;SDS011;64357;51.344;6.550;2024-01-15T05:24:34;9.90;;;4.20;;
75739;SDS011;64357;51.344;6.550;2024-01-15T05:27:02;6.80;;;2.70;;
75739;SDS011;64357;51.344;6.550;2024-01-15T05:29:28;8.25;;;4.20;;
75739;SDS011;64357;51.344;6.550;2024-01-15T05:31:53;3.17;;;1.23;;
75739;SDS011;64357;51.344;6.550;2024-01-15T05:34:18;9.70;;;3.50;;
75739;SDS011;64357;51.344;6.550;2024-01-15T05:36:44;10.10;;;4.53;;
75739;SDS011;64357;51.344;6.550;2024-01-15T05:39:11;5.80;;;2.30;;
75739;SDS011;64357;51.344;6.550;2024-01-15T05:41:39;5.55;;;2.33;;
75739;SDS011;64357;51.344;6.550;2024-01-15T05:44:06;6.28;;;2.58;;
75739;SDS011;64357;51.344;6.550;2024-01-15T05:46:35;4.38;;;1.92;;
75739;SDS011;64357;51.344;6.550;2024-01-15T05:49:02;8.57;;;2.22;;
75739;SDS011;64357;51.344;6.550;2024-01-15T05:51:27;6.60;;;2.57;;
75739;SDS011;64357;51.344;6.550;2024-01-15T05:53:53;10.97;;;1.67;;
75739;SDS011;64357;51.344;6.550;2024-01-15T05:56:18;8.00;;;3.60;;
75739;SDS011;64357;51.344;6.550;2024-01-15T05:58:43;7.68;;;2.22;;
75739;SDS011;64357;51.344;6.550;2024-01-15T06:01:09;6.43;;;2.40;;
75739;SDS011;64357;51.344;6.550;2024-01-15T06:03:34;7.70;;;2.92;;
75739;SDS011;64357;51.344;6.550;2024-01-15T06:06:00;4.73;;;1.67;;
75739;SDS011;64357;51.344;6.550;2024-01-15T06:08:27;9.90;;;3.40;;
75739;SDS011;64357;51.344;6.550;2024-01-15T06:10:53;8.23;;;2.77;;
75739;SDS011;64357;51.344;6.550;2024-01-15T06:13:19;6.50;;;2.33;;
75739;SDS011;64357;51.344;6.550;2024-01-15T06:15:44;5.72;;;2.30;;
75739;SDS011;64357;51.344;6.550;2024-01-15T06:18:10;3.87;;;1.63;;
75739;SDS011;64357;51.344;6.550;2024-01-15T06:20:35;5.60;;;2.10;;
75739;SDS011;64357;51.344;6.550;2024-01-15T06:23:03;5.53;;;1.52;;
75739;SDS011;64357;51.344;6.550;2024-01-15T06:25:29;8.52;;;1.85;;
75739;SDS011;64357;51.344;6.550;2024-01-15T06:27:56;9.10;;;2.25;;
75739;SDS011;64357;51.344;6.550;2024-01-15T06:30:22;5.27;;;2.20;;
75739;SDS011;64357;51.344;6.550;2024-01-15T06:32:47;4.78;;;1.58;;
75739;SDS011;64357;51.344;6.550;2024-01-15T06:35:12;4.17;;;1.87;;
75739;SDS011;64357;51.344;6.550;2024-01-15T06:37:38;2.25;;;0.85;;
75739;SDS011;64357;51.344;6.550;2024-01-15T06:40:03;4.60;;;1.47;;
75739;SDS011;64357;51.344;6.550;2024-01-15T06:42:31;2.78;;;1.13;;
75739;SDS011;64357;51.344;6.550;2024-01-15T06:45:01;0.98;;;0.68;;
75739;SDS011;64357;51.344;6.550;2024-01-15T06:47:27;4.15;;;1.75;;
75739;SDS011;64357;51.344;6.550;2024-01-15T06:49:52;3.35;;;0.98;;
75739;SDS011;64357;51.344;6.550;2024-01-15T06:52:20;7.20;;;2.47;;
75739;SDS011;64357;51.344;6.550;2024-01-15T06:54:45;2.80;;;1.33;;
75739;SDS011;64357;51.344;6.550;2024-01-15T06:57:11;4.30;;;1.53;;
75739;SDS011;64357;51.344;6.550;2024-01-15T06:59:36;5.03;;;2.23;;
75739;SDS011;64357;51.344;6.550;2024-01-15T07:02:03;3.90;;;1.98;;
75739;SDS011;64357;51.344;6.550;2024-01-15T07:04:32;6.10;;;2.60;;
75739;SDS011;64357;51.344;6.550;2024-01-15T07:06:57;8.60;;;2.90;;
75739;SDS011;64357;51.344;6.550;2024-01-15T07:09:23;9.43;;;4.03;;
75739;SDS011;64357;51.344;6.550;2024-01-15T07:11:51;11.43;;;4.40;;
75739;SDS011;64357;51.344;6.550;2024-01-15T07:14:16;8.18;;;3.47;;
75739;SDS011;64357;51.344;6.550;2024-01-15T07:16:41;9.77;;;3.43;;
75739;SDS011;64357;51.344;6.550;2024-01-15T07:19:07;13.37;;;4.53;;
75739;SDS011;64357;51.344;6.550;2024-01-15T07:21:34;13.23;;;6.00;;
75739;SDS011;64357;51.344;6.550;2024-01-15T07:24:00;8.53;;;3.13;;
75739;SDS011;64357;51.344;6.550;2024-01-15T07:26:27;8.97;;;3.90;;
75739;SDS011;64357;51.344;6.550;2024-01-15T07:28:53;8.93;;;3.78;;
75739;SDS011;64357;51.344;6.550;2024-01-15T07:31:18;7.77;;;3.57;;
75739;SDS011;64357;51.344;6.550;2024-01-15T07:33:44;6.38;;;2.45;;
75739;SDS011;64357;51.344;6.550;2024-01-15T07:36:09;9.10;;;3.13;;
75739;SDS011;64357;51.344;6.550;2024-01-15T07:38:37;8.82;;;3.78;;
75739;SDS011;64357;51.344;6.550;2024-01-15T07:41:04;13.68;;;5.15;;
75739;SDS011;64357;51.344;6.550;2024-01-15T07:43:30;5.07;;;2.17;;
75739;SDS011;64357;51.344;6.550;2024-01-15T07:45:55;6.15;;;2.30;;
75739;SDS011;64357;51.344;6.550;2024-01-15T07:48:21;11.67;;;4.93;;
75739;SDS011;64357;51.344;6.550;2024-01-15T07:50:46;10.82;;;3.08;;
75739;SDS011;64357;51.344;6.550;2024-01-15T07:53:11;8.10;;;4.27;;
75739;SDS011;64357;51.344;6.550;2024-01-15T07:55:37;10.50;;;5.03;;
75739;SDS011;64357;51.344;6.550;2024-01-15T07:58:02;8.30;;;2.60;;
75739;SDS011;64357;51.344;6.550;2024-01-15T08:00:28;6.47;;;3.03;;
75739;SDS011;64357;51.344;6.550;2024-01-15T08:02:53;5.60;;;1.77;;
75739;SDS011;64357;51.344;6.550;2024-01-15T08:05:20;8.48;;;3.47;;
75739;SDS011;64357;51.344;6.550;2024-01-15T08:07:47;6.38;;;2.78;;
75739;SDS011;64357;51.344;6.550;2024-01-15T08:10:15;6.85;;;3.35;;
75739;SDS011;64357;51.344;6.550;2024-01-15T08:12:40;4.97;;;1.65;;
75739;SDS011;64357;51.344;6.550;2024-01-15T08:15:08;4.57;;;2.13;;
75739;SDS011;64357;51.344;6.550;2024-01-15T08:17:34;6.40;;;2.77;;
75739;SDS011;64357;51.344;6.550;2024-01-15T08:19:59;8.50;;;3.70;;
75739;SDS011;64357;51.344;6.550;2024-01-15T08:22:29;8.45;;;3.28;;
75739;SDS011;64357;51.344;6.550;2024-01-15T08:24:55;5.17;;;2.13;;
75739;SDS011;64357;51.344;6.550;2024-01-15T08:27:23;7.10;;;3.25;;
75739;SDS011;64357;51.344;6.550;2024-01-15T08:29:48;6.87;;;2.83;;
75739;SDS011;64357;51.344;6.550;2024-01-15T08:32:14;5.50;;;2.50;;
75739;SDS011;64357;51.344;6.550;2024-01-15T08:34:42;4.72;;;2.42;;
75739;SDS011;64357;51.344;6.550;2024-01-15T08:37:08;6.75;;;2.00;;
75739;SDS011;64357;51.344;6.550;2024-01-15T08:39:33;3.47;;;1.63;;
75739;SDS011;64357;51.344;6.550;2024-01-15T08:41:59;4.57;;;2.03;;
75739;SDS011;64357;51.344;6.550;2024-01-15T08:44:24;2.80;;;1.30;;
75739;SDS011;64357;51.344;6.550;2024-01-15T08:46:49;5.13;;;2.10;;
75739;SDS011;64357;51.344;6.550;2024-01-15T08:49:17;4.07;;;1.57;;
75739;SDS011;64357;51.344;6.550;2024-01-15T08:51:43;8.38;;;3.05;;
75739;SDS011;64357;51.344;6.550;2024-01-15T08:54:08;8.53;;;3.77;;
75739;SDS011;64357;51.344;6.550;2024-01-15T08:56:34;7.50;;;3.13;;
75739;SDS011;64357;51.344;6.550;2024-01-15T08:58:59;3.50;;;1.38;;
75739;SDS011;64357;51.344;6.550;2024-01-15T09:01:29;8.43;;;3.03;;
75739;SDS011;64357;51.344;6.550;2024-01-15T09:03:55;4.95;;;2.03;;
75739;SDS011;64357;51.344;6.550;2024-01-15T09:06:21;4.50;;;2.00;;
75739;SDS011;64357;51.344;6.550;2024-01-15T09:08:48;6.35;;;2.30;;
75739;SDS011;64357;51.344;6.550;2024-01-15T09:11:14;2.65;;;1.23;;
75739;SDS011;64357;51.344;6.550;2024-01-15T09:13:39;5.97;;;2.13;;
75739;SDS011;64357;51.344;6.550;2024-01-15T09:16:05;5.27;;;1.53;;
75739;SDS011;64357;51.344;6.550;2024-01-15T09:18:30;5.30;;;1.85;;
75739;SDS011;64357;51.344;6.550;2024-01-15T09:20:56;4.78;;;1.80;;
75739;SDS011;64357;51.344;6.550;2024-01-15T09:23:22;4.37;;;1.53;;
75739;SDS011;64357;51.344;6.550;2024-01-15T09:25:47;7.20;;;2.40;;
75739;SDS011;64357;51.344;6.550;2024-01-15T09:28:15;2.72;;;1.15;;
75739;SDS011;64357;51.344;6.550;2024-01-15T09:30:43;6.03;;;2.45;;
75739;SDS011;64357;51.344;6.550;2024-01-15T09:33:09;4.00;;;1.88;;
75739;SDS011;64357;51.344;6.550;2024-01-15T09:35:44;3.80;;;1.27;;
75739;SDS011;64357;51.344;6.550;2024-01-15T09:38:10;4.78;;;2.00;;
75739;SDS011;64357;51.344;6.550;2024-01-15T09:40:38;3.25;;;1.38;;
75739;SDS011;64357;51.344;6.550;2024-01-15T09:43:06;4.13;;;1.67;;
75739;SDS011;64357;51.344;6.550;2024-01-15T09:45:35;3.38;;;1.35;;
75739;SDS011;64357;51.344;6.550;2024-01-15T09:48:00;3.35;;;1.63;;
75739;SDS011;64357;51.344;6.550;2024-01-15T09:50:26;5.55;;;2.03;;
75739;SDS011;64357;51.344;6.550;2024-01-15T09:52:51;5.90;;;2.42;;
75739;SDS011;64357;51.344;6.550;2024-01-15T09:55:17;6.53;;;1.92;;
75739;SDS011;64357;51.344;6.550;2024-01-15T09:57:43;3.80;;;1.53;;
75739;SDS011;64357;51.344;6.550;2024-01-15T10:00:13;4.03;;;1.35;;
75739;SDS011;64357;51.344;6.550;2024-01-15T10:02:44;5.50;;;1.85;;
75739;SDS011;64357;51.344;6.550;2024-01-15T10:05:10;5.65;;;2.33;;
75739;SDS011;64357;51.344;6.550;2024-01-15T10:07:37;6.13;;;2.72;;
75739;SDS011;64357;51.344;6.550;2024-01-15T10:10:03;6.50;;;2.08;;
75739;SDS011;64357;51.344;6.550;2024-01-15T10:12:29;3.10;;;0.82;;
75739;SDS011;64357;51.344;6.550;2024-01-15T10:14:55;5.60;;;1.80;;
75739;SDS011;64357;51.344;6.550;2024-01-15T10:17:24;7.60;;;2.58;;
75739;SDS011;64357;51.344;6.550;2024-01-15T10:19:52;4.53;;;2.03;;
75739;SDS011;64357;51.344;6.550;2024-01-15T10:22:17;5.27;;;2.40;;
75739;SDS011;64357;51.344;6.550;2024-01-15T10:24:45;4.90;;;1.85;;
75739;SDS011;64357;51.344;6.550;2024-01-15T10:27:12;2.28;;;1.00;;
75739;SDS011;64357;51.344;6.550;2024-01-15T10:29:40;3.50;;;1.25;;
75739;SDS011;64357;51.344;6.550;2024-01-15T10:32:07;5.43;;;1.90;;
75739;SDS011;64357;51.344;6.550;2024-01-15T10:34:33;0.93;;;0.63;;
75739;SDS011;64357;51.344;6.550;2024-01-15T10:37:08;4.45;;;1.65;;
75739;SDS011;64357;51.344;6.550;2024-01-15T10:39:38;3.90;;;1.63;;
75739;SDS011;64357;51.344;6.550;2024-01-15T10:42:04;3.22;;;1.42;;
75739;SDS011;64357;51.344;6.550;2024-01-15T10:44:30;5.30;;;1.88;;
75739;SDS011;64357;51.344;6.550;2024-01-15T10:46:55;5.70;;;2.15;;
75739;SDS011;64357;51.344;6.550;2024-01-15T10:49:22;5.47;;;2.08;;
75739;SDS011;64357;51.344;6.550;2024-01-15T10:51:50;3.78;;;1.50;;
75739;SDS011;64357;51.344;6.550;2024-01-15T10:54:17;4.88;;;1.42;;
75739;SDS011;64357;51.344;6.550;2024-01-15T10:56:45;4.63;;;1.40;;
75739;SDS011;64357;51.344;6.550;2024-01-15T10:59:11;5.40;;;1.75;;
75739;SDS011;64357;51.344;6.550;2024-01-15T11:01:40;3.72;;;0.95;;
75739;SDS011;64357;51.344;6.550;2024-01-15T11:04:11;2.13;;;0.98;;
75739;SDS011;64357;51.344;6.550;2024-01-15T11:06:44;4.18;;;1.33;;
75739;SDS011;64357;51.344;6.550;2024-01-15T11:09:11;4.28;;;1.70;;
75739;SDS011;64357;51.344;6.550;2024-01-15T11:11:43;2.92;;;1.25;;
75739;SDS011;64357;51.344;6.550;2024-01-15T11:17:03;3.75;;;0.68;;
75739;SDS011;64357;51.344;6.550;2024-01-15T11:20:05;2.50;;;1.33;;
75739;SDS011;64357;51.344;6.550;2024-01-15T11:24:54;2.03;;;0.82;;
75739;SDS011;64357;51.344;6.550;2024-01-15T11:27:45;4.25;;;0.73;;
75739;SDS011;64357;51.344;6.550;2024-01-15T11:30:18;2.63;;;0.90;;
75739;SDS011;64357;51.344;6.550;2024-01-15T11:32:47;1.45;;;0.77;;
75739;SDS011;64357;51.344;6.550;2024-01-15T11:35:18;1.60;;;0.70;;
75739;SDS011;64357;51.344;6.550;2024-01-15T11:40:23;3.00;;;0.88;;
75739;SDS011;64357;51.344;6.550;2024-01-15T11:43:02;3.83;;;0.95;;
75739;SDS011;64357;51.344;6.550;2024-01-15T11:45:28;2.05;;;1.20;;
75739;SDS011;64357;51.344;6.550;2024-01-15T11:48:09;4.03;;;1.02;;
75739;SDS011;64357;51.344;6.550;2024-01-15T11:50:35;3.65;;;0.77;;
75739;SDS011;64357;51.344;6.550;2024-01-15T11:53:11;2.88;;;0.93;;
75739;SDS011;64357;51.344;6.550;2024-01-15T11:55:41;3.17;;;1.23;;
75739;SDS011;64357;51.344;6.550;2024-01-15T11:58:10;1.90;;;0.65;;
75739;SDS011;64357;51.344;6.550;2024-01-15T12:00:39;4.35;;;1.17;;
75739;SDS011;64357;51.344;6.550;2024-01-15T12:03:08;4.30;;;1.67;;
75739;SDS011;64357;51.344;6.550;2024-01-15T12:05:36;3.08;;;1.02;;
75739;SDS011;64357;51.344;6.550;2024-01-15T12:08:02;1.25;;;0.73;;
75739;SDS011;64357;51.344;6.550;2024-01-15T12:10:28;4.60;;;1.30;;
75739;SDS011;64357;51.344;6.550;2024-01-15T12:15:35;4.68;;;1.42;;
75739;SDS011;64357;51.344;6.550;2024-01-15T12:18:03;2.03;;;1.10;;
75739;SDS011;64357;51.344;6.550;2024-01-15T12:20:31;5.93;;;1.50;;
75739;SDS011;64357;51.344;6.550;2024-01-15T12:22:58;3.38;;;0.88;;
75739;SDS011;64357;51.344;6.550;2024-01-15T12:25:26;3.88;;;1.30;;
75739;SDS011;64357;51.344;6.550;2024-01-15T12:27:52;2.50;;;1.30;;
75739;SDS011;64357;51.344;6.550;2024-01-15T12:30:19;5.90;;;1.73;;
75739;SDS011;64357;51.344;6.550;2024-01-15T12:32:45;4.63;;;2.22;;
75739;SDS011;64357;51.344;6.550;2024-01-15T12:35:12;8.00;;;2.78;;
75739;SDS011;64357;51.344;6.550;2024-01-15T12:37:37;3.05;;;1.33;;
75739;SDS011;64357;51.344;6.550;2024-01-15T12:40:07;8.95;;;2.22;;
75739;SDS011;64357;51.344;6.550;2024-01-15T12:42:35;4.85;;;1.73;;
75739;SDS011;64357;51.344;6.550;2024-01-15T12:45:01;6.97;;;2.78;;
75739;SDS011;64357;51.344;6.550;2024-01-15T12:47:28;9.07;;;2.50;;
75739;SDS011;64357;51.344;6.550;2024-01-15T12:49:53;4.87;;;2.03;;
75739;SDS011;64357;51.344;6.550;2024-01-15T12:52:22;4.13;;;1.30;;
75739;SDS011;64357;51.344;6.550;2024-01-15T12:54:48;5.95;;;2.20;;
75739;SDS011;64357;51.344;6.550;2024-01-15T12:57:19;6.13;;;1.15;;
75739;SDS011;64357;51.344;6.550;2024-01-15T12:59:44;3.08;;;1.20;;
75739;SDS011;64357;51.344;6.550;2024-01-15T13:02:12;11.98;;;2.15;;
75739;SDS011;64357;51.344;6.550;2024-01-15T13:04:38;4.65;;;1.35;;
75739;SDS011;64357;51.344;6.550;2024-01-15T13:07:05;8.45;;;2.33;;
75739;SDS011;64357;51.344;6.550;2024-01-15T13:09:31;2.85;;;1.10;;
75739;SDS011;64357;51.344;6.550;2024-01-15T13:11:56;5.55;;;2.00;;
75739;SDS011;64357;51.344;6.550;2024-01-15T13:14:24;5.90;;;2.20;;
75739;SDS011;64357;51.344;6.550;2024-01-15T13:16:50;6.30;;;1.67;;
75739;SDS011;64357;51.344;6.550;2024-01-15T13:19:16;5.50;;;1.75;;
75739;SDS011;64357;51.344;6.550;2024-01-15T13:21:42;4.50;;;1.40;;
75739;SDS011;64357;51.344;6.550;2024-01-15T13:24:12;3.15;;;1.33;;
75739;SDS011;64357;51.344;6.550;2024-01-15T13:26:40;3.53;;;1.20;;
75739;SDS011;64357;51.344;6.550;2024-01-15T13:29:10;4.63;;;1.48;;
75739;SDS011;64357;51.344;6.550;2024-01-15T13:31:36;1.73;;;0.80;;
75739;SDS011;64357;51.344;6.550;2024-01-15T13:34:01;4.13;;;1.50;;
75739;SDS011;64357;51.344;6.550;2024-01-15T13:36:26;2.50;;;1.10;;
75739;SDS011;64357;51.344;6.550;2024-01-15T13:38:54;3.55;;;0.73;;
75739;SDS011;64357;51.344;6.550;2024-01-15T13:41:20;2.85;;;1.20;;
75739;SDS011;64357;51.344;6.550;2024-01-15T13:43:52;2.90;;;1.10;;
75739;SDS011;64357;51.344;6.550;2024-01-15T13:46:22;2.78;;;1.15;;
75739;SDS011;64357;51.344;6.550;2024-01-15T13:48:49;2.55;;;1.05;;
75739;SDS011;64357;51.344;6.550;2024-01-15T13:51:15;2.15;;;0.80;;
75739;SDS011;64357;51.344;6.550;2024-01-15T13:53:41;3.47;;;0.93;;
75739;SDS011;64357;51.344;6.550;2024-01-15T13:56:07;2.08;;;1.02;;
75739;SDS011;64357;51.344;6.550;2024-01-15T13:58:35;1.27;;;0.60;;
75739;SDS011;64357;51.344;6.550;2024-01-15T14:01:02;1.90;;;0.75;;
75739;SDS011;64357;51.344;6.550;2024-01-15T14:03:30;2.92;;;1.00;;
75739;SDS011;64357;51.344;6.550;2024-01-15T14:05:55;3.57;;;1.03;;
75739;SDS011;64357;51.344;6.550;2024-01-15T14:08:21;1.40;;;0.77;;
75739;SDS011;64357;51.344;6.550;2024-01-15T14:10:49;0.95;;;0.50;;
75739;SDS011;64357;51.344;6.550;2024-01-15T14:13:14;1.77;;;0.80;;
75739;SDS011;64357;51.344;6.550;2024-01-15T14:15:42;0.80;;;0.47;;
75739;SDS011;64357;51.344;6.550;2024-01-15T14:18:08;3.47;;;0.90;;
75739;SDS011;64357;51.344;6.550;2024-01-15T14:20:33;0.83;;;0.60;;
75739;SDS011;64357;51.344;6.550;2024-01-15T14:22:58;3.57;;;0.97;;
75739;SDS011;64357;51.344;6.550;2024-01-15T14:25:26;1.17;;;0.47;;
75739;SDS011;64357;51.344;6.550;2024-01-15T14:27:54;1.30;;;0.55;;
75739;SDS011;64357;51.344;6.550;2024-01-15T14:30:22;5.28;;;0.77;;
75739;SDS011;64357;51.344;6.550;2024-01-15T14:32:50;2.47;;;1.17;;
75739;SDS011;64357;51.344;6.550;2024-01-15T14:35:15;2.08;;;0.80;;
75739;SDS011;64357;51.344;6.550;2024-01-15T14:37:41;2.95;;;1.02;;
75739;SDS011;64357;51.344;6.550;2024-01-15T14:40:06;1.05;;;0.63;;
75739;SDS011;64357;51.344;6.550;2024-01-15T14:42:35;2.03;;;0.80;;
75739;SDS011;64357;51.344;6.550;2024-01-15T14:45:01;1.65;;;0.50;;
75739;SDS011;64357;51.344;6.550;2024-01-15T14:47:28;1.63;;;1.00;;
75739;SDS011;64357;51.344;6.550;2024-01-15T14:49:56;3.22;;;1.08;;
75739;SDS011;64357;51.344;6.550;2024-01-15T14:52:22;2.47;;;0.75;;